M I D A S
Marine Information and Data Acquisition System
Tripno 1585 of the Zeeleeuw from 2008-10-10 06:02:11 to 2008-10-10 16:15:36
Back to CruiseResearch ActivitiesStationsMapUnderway DataData graphs

EquipmentUnitsComment
TimeDGPSUTC
LatitudeDGPSDM.mWGS84
LongitudeDGPSDM.mWGS84
TemperatureSBE03/SBE38deg celciusITS90
ConductivitySBE21S/mITS90
SalinitySBE21 Practical Salinity Units
ChlorophylAChelsea fluorimeterg/lCalibrated in Aceton
Missing or incorrect values are displayed as -999
Sea surface data collected by the RV Zeeleeuw from 2008-10-10 06:02:11 to 2008-10-10 16:15:36
                                                                                    Next 1000 lines
Time Latitude Longitude Temperature Conductivity Salinity ChlorophylA
2008-10-10 06:02:30 51°13.623 2°56.048 -999 -999 -999 -999
2008-10-10 06:02:40 51°13.623 2°56.048 -999 -999 -999 -999
2008-10-10 06:02:50 51°13.624 2°56.049 -999 -999 -999 -999
2008-10-10 06:03:00 51°13.624 2°56.048 -999 -999 -999 -999
2008-10-10 06:03:10 51°13.623 2°56.048 -999 -999 -999 -999
2008-10-10 06:03:20 51°13.623 2°56.048 -999 -999 -999 -999
2008-10-10 06:03:30 51°13.623 2°56.048 -999 -999 -999 -999
2008-10-10 06:03:40 51°13.623 2°56.049 -999 -999 -999 -999
2008-10-10 06:03:50 51°13.623 2°56.048 -999 -999 -999 -999
2008-10-10 06:04:00 51°13.622 2°56.047 -999 -999 -999 -999
2008-10-10 06:04:10 51°13.622 2°56.047 -999 -999 -999 -999
2008-10-10 06:04:20 51°13.622 2°56.047 -999 -999 -999 -999
2008-10-10 06:04:30 51°13.622 2°56.048 -999 -999 -999 -999
2008-10-10 06:04:40 51°13.621 2°56.047 -999 -999 -999 -999
2008-10-10 06:04:50 51°13.622 2°56.045 -999 -999 -999 -999
2008-10-10 06:05:00 51°13.623 2°56.039 -999 -999 -999 -999
2008-10-10 06:05:10 51°13.626 2°56.028 -999 -999 -999 -999
2008-10-10 06:05:20 51°13.629 2°56.017 -999 -999 -999 -999
2008-10-10 06:05:30 51°13.633 2°56.002 -999 -999 -999 -999
2008-10-10 06:05:40 51°13.637 2°55.986 -999 -999 -999 -999
2008-10-10 06:05:50 51°13.642 2°55.968 -999 -999 -999 -999
2008-10-10 06:06:00 51°13.647 2°55.949 -999 -999 -999 -999
2008-10-10 06:06:10 51°13.652 2°55.932 -999 -999 -999 -999
2008-10-10 06:06:20 51°13.658 2°55.912 -999 -999 -999 -999
2008-10-10 06:06:30 51°13.665 2°55.893 -999 -999 -999 -999
2008-10-10 06:06:40 51°13.673 2°55.874 -999 -999 -999 -999
2008-10-10 06:06:50 51°13.681 2°55.854 -999 -999 -999 -999
2008-10-10 06:07:00 51°13.689 2°55.835 -999 -999 -999 -999
2008-10-10 06:07:10 51°13.699 2°55.816 -999 -999 -999 -999
2008-10-10 06:07:20 51°13.708 2°55.797 -999 -999 -999 -999
2008-10-10 06:07:30 51°13.719 2°55.779 -999 -999 -999 -999
2008-10-10 06:07:40 51°13.729 2°55.761 -999 -999 -999 -999
2008-10-10 06:07:50 51°13.74 2°55.743 -999 -999 -999 -999
2008-10-10 06:08:00 51°13.75 2°55.726 -999 -999 -999 -999
2008-10-10 06:08:10 51°13.762 2°55.709 -999 -999 -999 -999
2008-10-10 06:08:20 51°13.773 2°55.693 -999 -999 -999 -999
2008-10-10 06:08:30 51°13.785 2°55.678 -999 -999 -999 -999
2008-10-10 06:08:40 51°13.8 2°55.663 -999 -999 -999 -999
2008-10-10 06:08:50 51°13.811 2°55.652 -999 -999 -999 -999
2008-10-10 06:09:00 51°13.825 2°55.641 -999 -999 -999 -999
2008-10-10 06:09:10 51°13.838 2°55.632 -999 -999 -999 -999
2008-10-10 06:09:20 51°13.852 2°55.627 -999 -999 -999 -999
2008-10-10 06:09:30 51°13.866 2°55.624 -999 -999 -999 -999
2008-10-10 06:09:40 51°13.878 2°55.624 -999 -999 -999 -999
2008-10-10 06:09:50 51°13.891 2°55.627 -999 -999 -999 -999
2008-10-10 06:10:00 51°13.904 2°55.632 -999 -999 -999 -999
2008-10-10 06:10:10 51°13.914 2°55.638 -999 -999 -999 -999
2008-10-10 06:10:20 51°13.924 2°55.646 -999 -999 -999 -999
2008-10-10 06:10:30 51°13.932 2°55.652 -999 -999 -999 -999
2008-10-10 06:10:40 51°13.936 2°55.656 -999 -999 -999 -999
2008-10-10 06:10:50 51°13.939 2°55.657 -999 -999 -999 -999
2008-10-10 06:11:00 51°13.939 2°55.652 -999 -999 -999 -999
2008-10-10 06:11:10 51°13.938 2°55.642 -999 -999 -999 -999
2008-10-10 06:11:20 51°13.94 2°55.629 -999 -999 -999 -999
2008-10-10 06:11:30 51°13.944 2°55.613 -999 -999 -999 -999
2008-10-10 06:11:40 51°13.952 2°55.595 -999 -999 -999 -999
2008-10-10 06:11:50 51°13.962 2°55.578 -999 -999 -999 -999
2008-10-10 06:12:00 51°13.977 2°55.559 -999 -999 -999 -999
2008-10-10 06:12:10 51°13.991 2°55.541 -999 -999 -999 -999
2008-10-10 06:12:20 51°14.006 2°55.525 -999 -999 -999 -999
2008-10-10 06:12:30 51°14.023 2°55.508 -999 -999 -999 -999
2008-10-10 06:12:40 51°14.041 2°55.49 -999 -999 -999 -999
2008-10-10 06:12:50 51°14.059 2°55.472 -999 -999 -999 -999
2008-10-10 06:13:00 51°14.08 2°55.453 -999 -999 -999 -999
2008-10-10 06:13:10 51°14.099 2°55.436 -999 -999 -999 -999
2008-10-10 06:13:20 51°14.12 2°55.416 -999 -999 -999 -999
2008-10-10 06:13:30 51°14.14 2°55.397 -999 -999 -999 -999
2008-10-10 06:13:40 51°14.164 2°55.373 -999 -999 -999 -999
2008-10-10 06:13:50 51°14.19 2°55.343 -999 -999 -999 -999
2008-10-10 06:14:00 51°14.214 2°55.315 -999 -999 -999 -999
2008-10-10 06:14:10 51°14.238 2°55.283 -999 -999 -999 -999
2008-10-10 06:14:20 51°14.261 2°55.248 -999 -999 -999 -999
2008-10-10 06:14:30 51°14.281 2°55.215 -999 -999 -999 -999
2008-10-10 06:14:40 51°14.302 2°55.176 -999 -999 -999 -999
2008-10-10 06:14:50 51°14.322 2°55.135 -999 -999 -999 -999
2008-10-10 06:15:00 51°14.342 2°55.093 -999 -999 -999 -999
2008-10-10 06:15:10 51°14.36 2°55.049 -999 -999 -999 -999
2008-10-10 06:15:20 51°14.374 2°55.003 -999 -999 -999 -999
2008-10-10 06:15:30 51°14.388 2°54.957 -999 -999 -999 -999
2008-10-10 06:15:40 51°14.398 2°54.908 -999 -999 -999 -999
2008-10-10 06:15:50 51°14.404 2°54.852 -999 -999 -999 -999
2008-10-10 06:16:00 51°14.406 2°54.802 -999 -999 -999 -999
2008-10-10 06:16:10 51°14.404 2°54.751 -999 -999 -999 -999
2008-10-10 06:16:20 51°14.399 2°54.705 -999 -999 -999 -999
2008-10-10 06:16:30 51°14.391 2°54.656 -999 -999 -999 -999
2008-10-10 06:16:40 51°14.38 2°54.608 -999 -999 -999 -999
2008-10-10 06:16:50 51°14.367 2°54.561 -999 -999 -999 -999
2008-10-10 06:17:00 51°14.353 2°54.515 -999 -999 -999 -999
2008-10-10 06:17:10 51°14.339 2°54.469 -999 -999 -999 -999
2008-10-10 06:17:20 51°14.324 2°54.424 -999 -999 -999 -999
2008-10-10 06:17:30 51°14.308 2°54.378 -999 -999 -999 -999
2008-10-10 06:17:40 51°14.293 2°54.332 -999 -999 -999 -999
2008-10-10 06:17:50 51°14.279 2°54.291 -999 -999 -999 -999
2008-10-10 06:18:00 51°14.263 2°54.24 -999 -999 -999 -999
2008-10-10 06:18:10 51°14.249 2°54.194 -999 -999 -999 -999
2008-10-10 06:18:20 51°14.232 2°54.143 -999 -999 -999 -999
2008-10-10 06:18:30 51°14.219 2°54.101 -999 -999 -999 -999
2008-10-10 06:18:40 51°14.202 2°54.051 -999 -999 -999 -999
2008-10-10 06:18:50 51°14.188 2°54.009 -999 -999 -999 -999
2008-10-10 06:19:00 51°14.174 2°53.963 -999 -999 -999 -999
2008-10-10 06:19:10 51°14.159 2°53.917 -999 -999 -999 -999
2008-10-10 06:19:20 51°14.143 2°53.871 -999 -999 -999 -999
2008-10-10 06:19:30 51°14.128 2°53.825 -999 -999 -999 -999
2008-10-10 06:19:40 51°14.111 2°53.774 -999 -999 -999 -999
2008-10-10 06:19:50 51°14.095 2°53.729 -999 -999 -999 -999
2008-10-10 06:20:00 51°14.08 2°53.689 -999 -999 -999 -999
2008-10-10 06:20:10 51°14.064 2°53.645 -999 -999 -999 -999
2008-10-10 06:20:20 51°14.047 2°53.6 -999 -999 -999 -999
2008-10-10 06:20:30 51°14.03 2°53.556 -999 -999 -999 -999
2008-10-10 06:20:40 51°14.012 2°53.507 -999 -999 -999 -999
2008-10-10 06:20:50 51°13.997 2°53.468 -999 -999 -999 -999
2008-10-10 06:21:00 51°13.98 2°53.423 -999 -999 -999 -999
2008-10-10 06:21:10 51°13.964 2°53.379 -999 -999 -999 -999
2008-10-10 06:21:20 51°13.948 2°53.333 -999 -999 -999 -999
2008-10-10 06:21:30 51°13.933 2°53.287 -999 -999 -999 -999
2008-10-10 06:21:40 51°13.916 2°53.237 -999 -999 -999 -999
2008-10-10 06:21:50 51°13.902 2°53.196 -999 -999 -999 -999
2008-10-10 06:22:00 51°13.886 2°53.151 -999 -999 -999 -999
2008-10-10 06:22:10 51°13.87 2°53.106 -999 -999 -999 -999
2008-10-10 06:22:20 51°13.853 2°53.062 -999 -999 -999 -999
2008-10-10 06:22:30 51°13.836 2°53.012 -999 -999 -999 -999
2008-10-10 06:22:40 51°13.821 2°52.972 -999 -999 -999 -999
2008-10-10 06:22:50 51°13.805 2°52.927 -999 -999 -999 -999
2008-10-10 06:23:00 51°13.789 2°52.882 -999 -999 -999 -999
2008-10-10 06:23:10 51°13.772 2°52.832 -999 -999 -999 -999
2008-10-10 06:23:20 51°13.756 2°52.786 -999 -999 -999 -999
2008-10-10 06:23:30 51°13.742 2°52.745 -999 -999 -999 -999
2008-10-10 06:23:40 51°13.726 2°52.7 -999 -999 -999 -999
2008-10-10 06:23:50 51°13.71 2°52.655 -999 -999 -999 -999
2008-10-10 06:24:00 51°13.693 2°52.604 -999 -999 -999 -999
2008-10-10 06:24:10 51°13.678 2°52.558 -999 -999 -999 -999
2008-10-10 06:24:20 51°13.663 2°52.511 -999 -999 -999 -999
2008-10-10 06:24:30 51°13.65 2°52.469 -999 -999 -999 -999
2008-10-10 06:24:40 51°13.635 2°52.422 -999 -999 -999 -999
2008-10-10 06:24:50 51°13.62 2°52.375 -999 -999 -999 -999
2008-10-10 06:25:00 51°13.604 2°52.323 -999 -999 -999 -999
2008-10-10 06:25:10 51°13.59 2°52.275 -999 -999 -999 -999
2008-10-10 06:25:20 51°13.576 2°52.233 -999 -999 -999 -999
2008-10-10 06:25:30 51°13.561 2°52.187 -999 -999 -999 -999
2008-10-10 06:25:40 51°13.547 2°52.14 -999 -999 -999 -999
2008-10-10 06:25:50 51°13.532 2°52.094 -999 -999 -999 -999
2008-10-10 06:26:00 51°13.516 2°52.042 -999 -999 -999 -999
2008-10-10 06:26:10 51°13.501 2°51.996 -999 -999 -999 -999
2008-10-10 06:26:20 51°13.486 2°51.95 -999 -999 -999 -999
2008-10-10 06:26:30 51°13.473 2°51.907 -999 -999 -999 -999
2008-10-10 06:26:40 51°13.458 2°51.861 -999 -999 -999 -999
2008-10-10 06:26:50 51°13.443 2°51.814 -999 -999 -999 -999
2008-10-10 06:27:00 51°13.427 2°51.763 -999 -999 -999 -999
2008-10-10 06:27:10 51°13.413 2°51.721 -999 -999 -999 -999
2008-10-10 06:27:20 51°13.398 2°51.674 -999 -999 -999 -999
2008-10-10 06:27:30 51°13.383 2°51.628 -999 -999 -999 -999
2008-10-10 06:27:40 51°13.366 2°51.577 -999 -999 -999 -999
2008-10-10 06:27:50 51°13.353 2°51.535 -999 -999 -999 -999
2008-10-10 06:28:00 51°13.337 2°51.489 -999 -999 -999 -999
2008-10-10 06:28:10 51°13.323 2°51.442 -999 -999 -999 -999
2008-10-10 06:28:20 51°13.306 2°51.392 -999 -999 -999 -999
2008-10-10 06:28:30 51°13.292 2°51.351 -999 -999 -999 -999
2008-10-10 06:28:40 51°13.277 2°51.304 -999 -999 -999 -999
2008-10-10 06:28:50 51°13.26 2°51.254 -999 -999 -999 -999
2008-10-10 06:29:00 51°13.246 2°51.213 -999 -999 -999 -999
2008-10-10 06:29:10 51°13.23 2°51.167 -999 -999 -999 -999
2008-10-10 06:29:20 51°13.215 2°51.12 -999 -999 -999 -999
2008-10-10 06:29:30 51°13.199 2°51.069 -999 -999 -999 -999
2008-10-10 06:29:40 51°13.185 2°51.028 -999 -999 -999 -999
2008-10-10 06:29:50 51°13.168 2°50.977 -999 -999 -999 -999
2008-10-10 06:30:00 51°13.154 2°50.936 -999 -999 -999 -999
2008-10-10 06:30:10 51°13.139 2°50.89 -999 -999 -999 -999
2008-10-10 06:30:20 51°13.123 2°50.844 -999 -999 -999 -999
2008-10-10 06:30:30 51°13.106 2°50.793 -999 -999 -999 -999
2008-10-10 06:30:40 51°13.092 2°50.752 -999 -999 -999 -999
2008-10-10 06:30:50 51°13.077 2°50.706 -999 -999 -999 -999
2008-10-10 06:31:00 51°13.062 2°50.66 -999 -999 -999 -999
2008-10-10 06:31:10 51°13.046 2°50.609 -999 -999 -999 -999
2008-10-10 06:31:20 51°13.03 2°50.563 -999 -999 -999 -999
2008-10-10 06:31:30 51°13.017 2°50.522 -999 -999 -999 -999
2008-10-10 06:31:40 51°13.001 2°50.476 -999 -999 -999 -999
2008-10-10 06:31:50 51°12.985 2°50.431 -999 -999 -999 -999
2008-10-10 06:32:00 51°12.967 2°50.382 -999 -999 -999 -999
2008-10-10 06:32:10 51°12.952 2°50.336 -999 -999 -999 -999
2008-10-10 06:32:20 51°12.938 2°50.295 -999 -999 -999 -999
2008-10-10 06:32:30 51°12.923 2°50.249 -999 -999 -999 -999
2008-10-10 06:32:40 51°12.908 2°50.203 -999 -999 -999 -999
2008-10-10 06:32:50 51°12.892 2°50.158 -999 -999 -999 -999
2008-10-10 06:33:00 51°12.877 2°50.112 -999 -999 -999 -999
2008-10-10 06:33:10 51°12.861 2°50.067 -999 -999 -999 -999
2008-10-10 06:33:20 51°12.845 2°50.022 -999 -999 -999 -999
2008-10-10 06:33:30 51°12.828 2°49.972 -999 -999 -999 -999
2008-10-10 06:33:40 51°12.814 2°49.931 -999 -999 -999 -999
2008-10-10 06:33:50 51°12.799 2°49.886 -999 -999 -999 -999
2008-10-10 06:34:00 51°12.783 2°49.841 -999 -999 -999 -999
2008-10-10 06:34:10 51°12.766 2°49.791 -999 -999 -999 -999
2008-10-10 06:34:20 51°12.752 2°49.75 -999 -999 -999 -999
2008-10-10 06:34:30 51°12.736 2°49.705 -999 -999 -999 -999
2008-10-10 06:34:40 51°12.718 2°49.656 -999 -999 -999 -999
2008-10-10 06:34:50 51°12.703 2°49.611 -999 -999 -999 -999
2008-10-10 06:35:00 51°12.689 2°49.569 -999 -999 -999 -999
2008-10-10 06:35:10 51°12.675 2°49.524 -999 -999 -999 -999
2008-10-10 06:35:20 51°12.661 2°49.478 -999 -999 -999 -999
2008-10-10 06:35:30 51°12.647 2°49.431 -999 -999 -999 -999
2008-10-10 06:35:40 51°12.633 2°49.379 -999 -999 -999 -999
2008-10-10 06:35:50 51°12.62 2°49.337 -999 -999 -999 -999
2008-10-10 06:36:00 51°12.607 2°49.29 -999 -999 -999 -999
2008-10-10 06:36:10 51°12.593 2°49.244 -999 -999 -999 -999
2008-10-10 06:36:20 51°12.578 2°49.192 -999 -999 -999 -999
2008-10-10 06:36:30 51°12.566 2°49.15 -999 -999 -999 -999
2008-10-10 06:36:40 51°12.553 2°49.103 -999 -999 -999 -999
2008-10-10 06:36:50 51°12.54 2°49.05 -999 -999 -999 -999
2008-10-10 06:37:00 51°12.527 2°49.009 -999 -999 -999 -999
2008-10-10 06:37:10 51°12.513 2°48.962 -999 -999 -999 -999
2008-10-10 06:37:20 51°12.498 2°48.915 -999 -999 -999 -999
2008-10-10 06:37:30 51°12.484 2°48.869 -999 -999 -999 -999
2008-10-10 06:37:40 51°12.469 2°48.824 -999 -999 -999 -999
2008-10-10 06:37:50 51°12.454 2°48.778 -999 -999 -999 -999
2008-10-10 06:38:00 51°12.439 2°48.732 -999 -999 -999 -999
2008-10-10 06:38:10 51°12.423 2°48.687 -999 -999 -999 -999
2008-10-10 06:38:20 51°12.407 2°48.637 -999 -999 -999 -999
2008-10-10 06:38:30 51°12.393 2°48.596 -999 -999 -999 -999
2008-10-10 06:38:40 51°12.378 2°48.55 -999 -999 -999 -999
2008-10-10 06:38:50 51°12.363 2°48.499 -999 -999 -999 -999
2008-10-10 06:39:00 51°12.35 2°48.458 -999 -999 -999 -999
2008-10-10 06:39:10 51°12.335 2°48.412 -999 -999 -999 -999
2008-10-10 06:39:20 51°12.32 2°48.366 -999 -999 -999 -999
2008-10-10 06:39:30 51°12.305 2°48.32 -999 -999 -999 -999
2008-10-10 06:39:40 51°12.291 2°48.274 -999 -999 -999 -999
2008-10-10 06:39:50 51°12.276 2°48.228 -999 -999 -999 -999
2008-10-10 06:40:00 51°12.262 2°48.182 -999 -999 -999 -999
2008-10-10 06:40:10 51°12.247 2°48.136 -999 -999 -999 -999
2008-10-10 06:40:20 51°12.233 2°48.09 -999 -999 -999 -999
2008-10-10 06:40:30 51°12.219 2°48.043 -999 -999 -999 -999
2008-10-10 06:40:40 51°12.205 2°47.997 -999 -999 -999 -999
2008-10-10 06:40:50 51°12.191 2°47.951 -999 -999 -999 -999
2008-10-10 06:41:00 51°12.177 2°47.904 -999 -999 -999 -999
2008-10-10 06:41:10 51°12.162 2°47.859 -999 -999 -999 -999
2008-10-10 06:41:20 51°12.148 2°47.812 -999 -999 -999 -999
2008-10-10 06:41:30 51°12.134 2°47.766 -999 -999 -999 -999
2008-10-10 06:41:40 51°12.121 2°47.72 -999 -999 -999 -999
2008-10-10 06:41:50 51°12.106 2°47.673 -999 -999 -999 -999
2008-10-10 06:42:00 51°12.093 2°47.627 -999 -999 -999 -999
2008-10-10 06:42:10 51°12.079 2°47.58 -999 -999 -999 -999
2008-10-10 06:42:20 51°12.065 2°47.533 -999 -999 -999 -999
2008-10-10 06:42:30 51°12.051 2°47.487 -999 -999 -999 -999
2008-10-10 06:42:40 51°12.036 2°47.441 -999 -999 -999 -999
2008-10-10 06:42:50 51°12.022 2°47.395 -999 -999 -999 -999
2008-10-10 06:43:00 51°12.009 2°47.348 -999 -999 -999 -999
2008-10-10 06:43:10 51°11.994 2°47.303 -999 -999 -999 -999
2008-10-10 06:43:20 51°11.98 2°47.257 -999 -999 -999 -999
2008-10-10 06:43:30 51°11.966 2°47.211 -999 -999 -999 -999
2008-10-10 06:43:40 51°11.951 2°47.165 -999 -999 -999 -999
2008-10-10 06:43:50 51°11.937 2°47.118 -999 -999 -999 -999
2008-10-10 06:44:00 51°11.924 2°47.072 -999 -999 -999 -999
2008-10-10 06:44:10 51°11.91 2°47.026 -999 -999 -999 -999
2008-10-10 06:44:20 51°11.896 2°46.979 -999 -999 -999 -999
2008-10-10 06:44:30 51°11.883 2°46.932 -999 -999 -999 -999
2008-10-10 06:44:40 51°11.87 2°46.884 -999 -999 -999 -999
2008-10-10 06:44:50 51°11.858 2°46.836 -999 -999 -999 -999
2008-10-10 06:45:00 51°11.847 2°46.787 -999 -999 -999 -999
2008-10-10 06:45:10 51°11.837 2°46.738 -999 -999 -999 -999
2008-10-10 06:45:20 51°11.827 2°46.689 -999 -999 -999 -999
2008-10-10 06:45:30 51°11.817 2°46.639 -999 -999 -999 -999
2008-10-10 06:45:40 51°11.808 2°46.59 -999 -999 -999 -999
2008-10-10 06:45:50 51°11.8 2°46.539 -999 -999 -999 -999
2008-10-10 06:46:00 51°11.793 2°46.489 -999 -999 -999 -999
2008-10-10 06:46:10 51°11.786 2°46.439 -999 -999 -999 -999
2008-10-10 06:46:20 51°11.779 2°46.388 -999 -999 -999 -999
2008-10-10 06:46:30 51°11.772 2°46.338 -999 -999 -999 -999
2008-10-10 06:46:40 51°11.765 2°46.287 -999 -999 -999 -999
2008-10-10 06:46:50 51°11.759 2°46.237 -999 -999 -999 -999
2008-10-10 06:47:00 51°11.754 2°46.186 -999 -999 -999 -999
2008-10-10 06:47:10 51°11.749 2°46.135 -999 -999 -999 -999
2008-10-10 06:47:20 51°11.745 2°46.085 -999 -999 -999 -999
2008-10-10 06:47:30 51°11.739 2°46.034 -999 -999 -999 -999
2008-10-10 06:47:40 51°11.735 2°45.983 -999 -999 -999 -999
2008-10-10 06:47:50 51°11.73 2°45.933 -999 -999 -999 -999
2008-10-10 06:48:00 51°11.725 2°45.882 -999 -999 -999 -999
2008-10-10 06:48:10 51°11.72 2°45.832 -999 -999 -999 -999
2008-10-10 06:48:20 51°11.716 2°45.781 -999 -999 -999 -999
2008-10-10 06:48:30 51°11.712 2°45.73 -999 -999 -999 -999
2008-10-10 06:48:40 51°11.707 2°45.68 -999 -999 -999 -999
2008-10-10 06:48:50 51°11.702 2°45.629 -999 -999 -999 -999
2008-10-10 06:49:00 51°11.698 2°45.579 -999 -999 -999 -999
2008-10-10 06:49:10 51°11.694 2°45.528 -999 -999 -999 -999
2008-10-10 06:49:20 51°11.69 2°45.477 -999 -999 -999 -999
2008-10-10 06:49:30 51°11.686 2°45.427 -999 -999 -999 -999
2008-10-10 06:49:40 51°11.682 2°45.376 -999 -999 -999 -999
2008-10-10 06:49:50 51°11.679 2°45.325 -999 -999 -999 -999
2008-10-10 06:50:00 51°11.676 2°45.274 -999 -999 -999 -999
2008-10-10 06:50:10 51°11.674 2°45.223 -999 -999 -999 -999
2008-10-10 06:50:20 51°11.671 2°45.172 -999 -999 -999 -999
2008-10-10 06:50:30 51°11.669 2°45.121 -999 -999 -999 -999
2008-10-10 06:50:40 51°11.666 2°45.07 -999 -999 -999 -999
2008-10-10 06:50:50 51°11.663 2°45.02 -999 -999 -999 -999
2008-10-10 06:51:00 51°11.659 2°44.969 -999 -999 -999 -999
2008-10-10 06:51:10 51°11.656 2°44.919 -999 -999 -999 -999
2008-10-10 06:51:20 51°11.653 2°44.868 -999 -999 -999 -999
2008-10-10 06:51:30 51°11.649 2°44.818 -999 -999 -999 -999
2008-10-10 06:51:40 51°11.645 2°44.768 -999 -999 -999 -999
2008-10-10 06:51:50 51°11.641 2°44.718 -999 -999 -999 -999
2008-10-10 06:52:00 51°11.638 2°44.667 -999 -999 -999 -999
2008-10-10 06:52:10 51°11.634 2°44.617 -999 -999 -999 -999
2008-10-10 06:52:20 51°11.629 2°44.567 -999 -999 -999 -999
2008-10-10 06:52:30 51°11.623 2°44.517 -999 -999 -999 -999
2008-10-10 06:52:40 51°11.618 2°44.468 -999 -999 -999 -999
2008-10-10 06:52:50 51°11.613 2°44.418 -999 -999 -999 -999
2008-10-10 06:53:00 51°11.608 2°44.368 -999 -999 -999 -999
2008-10-10 06:53:10 51°11.603 2°44.319 -999 -999 -999 -999
2008-10-10 06:53:20 51°11.598 2°44.27 -999 -999 -999 -999
2008-10-10 06:53:30 51°11.593 2°44.22 -999 -999 -999 -999
2008-10-10 06:53:40 51°11.588 2°44.171 -999 -999 -999 -999
2008-10-10 06:53:50 51°11.583 2°44.122 -999 -999 -999 -999
2008-10-10 06:54:00 51°11.578 2°44.072 -999 -999 -999 -999
2008-10-10 06:54:10 51°11.573 2°44.023 -999 -999 -999 -999
2008-10-10 06:54:20 51°11.569 2°43.973 -999 -999 -999 -999
2008-10-10 06:54:30 51°11.565 2°43.923 -999 -999 -999 -999
2008-10-10 06:54:40 51°11.562 2°43.873 -999 -999 -999 -999
2008-10-10 06:54:50 51°11.559 2°43.823 -999 -999 -999 -999
2008-10-10 06:55:00 51°11.556 2°43.773 -999 -999 -999 -999
2008-10-10 06:55:10 51°11.553 2°43.723 -999 -999 -999 -999
2008-10-10 06:55:20 51°11.55 2°43.673 -999 -999 -999 -999
2008-10-10 06:55:30 51°11.547 2°43.623 -999 -999 -999 -999
2008-10-10 06:55:40 51°11.544 2°43.572 -999 -999 -999 -999
2008-10-10 06:55:50 51°11.541 2°43.523 -999 -999 -999 -999
2008-10-10 06:56:00 51°11.537 2°43.473 -999 -999 -999 -999
2008-10-10 06:56:10 51°11.532 2°43.423 -999 -999 -999 -999
2008-10-10 06:56:20 51°11.527 2°43.373 -999 -999 -999 -999
2008-10-10 06:56:30 51°11.522 2°43.324 -999 -999 -999 -999
2008-10-10 06:56:40 51°11.516 2°43.275 -999 -999 -999 -999
2008-10-10 06:56:50 51°11.509 2°43.226 -999 -999 -999 -999
2008-10-10 06:57:00 51°11.501 2°43.178 -999 -999 -999 -999
2008-10-10 06:57:10 51°11.492 2°43.13 -999 -999 -999 -999
2008-10-10 06:57:20 51°11.482 2°43.082 -999 -999 -999 -999
2008-10-10 06:57:30 51°11.472 2°43.035 -999 -999 -999 -999
2008-10-10 06:57:40 51°11.46 2°42.989 -999 -999 -999 -999
2008-10-10 06:57:50 51°11.448 2°42.942 -999 -999 -999 -999
2008-10-10 06:58:00 51°11.437 2°42.895 -999 -999 -999 -999
2008-10-10 06:58:10 51°11.425 2°42.85 -999 -999 -999 -999
2008-10-10 06:58:20 51°11.413 2°42.804 -999 -999 -999 -999
2008-10-10 06:58:30 51°11.4 2°42.759 -999 -999 -999 -999
2008-10-10 06:58:40 51°11.389 2°42.712 -999 -999 -999 -999
2008-10-10 06:58:50 51°11.376 2°42.667 -999 -999 -999 -999
2008-10-10 06:59:00 51°11.364 2°42.621 -999 -999 -999 -999
2008-10-10 06:59:10 51°11.353 2°42.573 -999 -999 -999 -999
2008-10-10 06:59:20 51°11.341 2°42.527 -999 -999 -999 -999
2008-10-10 06:59:30 51°11.33 2°42.482 -999 -999 -999 -999
2008-10-10 06:59:40 51°11.318 2°42.436 -999 -999 -999 -999
2008-10-10 06:59:50 51°11.306 2°42.39 -999 -999 -999 -999
2008-10-10 07:00:00 51°11.294 2°42.344 -999 -999 -999 -999
2008-10-10 07:00:10 51°11.282 2°42.297 -999 -999 -999 -999
2008-10-10 07:00:20 51°11.271 2°42.251 -999 -999 -999 -999
2008-10-10 07:00:30 51°11.26 2°42.204 -999 -999 -999 -999
2008-10-10 07:00:40 51°11.25 2°42.157 -999 -999 -999 -999
2008-10-10 07:00:50 51°11.24 2°42.11 -999 -999 -999 -999
2008-10-10 07:01:00 51°11.23 2°42.063 -999 -999 -999 -999
2008-10-10 07:01:10 51°11.22 2°42.015 -999 -999 -999 -999
2008-10-10 07:01:20 51°11.21 2°41.968 -999 -999 -999 -999
2008-10-10 07:01:30 51°11.198 2°41.921 -999 -999 -999 -999
2008-10-10 07:01:40 51°11.186 2°41.875 -999 -999 -999 -999
2008-10-10 07:01:50 51°11.174 2°41.83 -999 -999 -999 -999
2008-10-10 07:02:00 51°11.161 2°41.784 -999 -999 -999 -999
2008-10-10 07:02:10 51°11.148 2°41.74 -999 -999 -999 -999
2008-10-10 07:02:20 51°11.135 2°41.694 -999 -999 -999 -999
2008-10-10 07:02:30 51°11.123 2°41.647 -999 -999 -999 -999
2008-10-10 07:02:40 51°11.111 2°41.602 -999 -999 -999 -999
2008-10-10 07:02:50 51°11.098 2°41.556 -999 -999 -999 -999
2008-10-10 07:03:00 51°11.085 2°41.511 -999 -999 -999 -999
2008-10-10 07:03:10 51°11.072 2°41.465 -999 -999 -999 -999
2008-10-10 07:03:20 51°11.06 2°41.419 -999 -999 -999 -999
2008-10-10 07:03:30 51°11.047 2°41.373 -999 -999 -999 -999
2008-10-10 07:03:40 51°11.034 2°41.328 -999 -999 -999 -999
2008-10-10 07:03:50 51°11.021 2°41.283 -999 -999 -999 -999
2008-10-10 07:04:00 51°11.008 2°41.237 -999 -999 -999 -999
2008-10-10 07:04:10 51°10.995 2°41.192 -999 -999 -999 -999
2008-10-10 07:04:20 51°10.982 2°41.147 -999 -999 -999 -999
2008-10-10 07:04:30 51°10.968 2°41.102 -999 -999 -999 -999
2008-10-10 07:04:40 51°10.956 2°41.056 -999 -999 -999 -999
2008-10-10 07:04:50 51°10.943 2°41.01 -999 -999 -999 -999
2008-10-10 07:05:00 51°10.93 2°40.965 -999 -999 -999 -999
2008-10-10 07:05:10 51°10.917 2°40.92 -999 -999 -999 -999
2008-10-10 07:05:20 51°10.904 2°40.875 -999 -999 -999 -999
2008-10-10 07:05:30 51°10.891 2°40.829 -999 -999 -999 -999
2008-10-10 07:05:40 51°10.878 2°40.783 -999 -999 -999 -999
2008-10-10 07:05:50 51°10.865 2°40.738 -999 -999 -999 -999
2008-10-10 07:06:00 51°10.851 2°40.693 -999 -999 -999 -999
2008-10-10 07:06:10 51°10.838 2°40.648 -999 -999 -999 -999
2008-10-10 07:06:20 51°10.824 2°40.603 -999 -999 -999 -999
2008-10-10 07:06:30 51°10.812 2°40.557 -999 -999 -999 -999
2008-10-10 07:06:40 51°10.799 2°40.512 -999 -999 -999 -999
2008-10-10 07:06:50 51°10.786 2°40.466 -999 -999 -999 -999
2008-10-10 07:07:00 51°10.773 2°40.42 -999 -999 -999 -999
2008-10-10 07:07:10 51°10.76 2°40.374 -999 -999 -999 -999
2008-10-10 07:07:20 51°10.747 2°40.329 -999 -999 -999 -999
2008-10-10 07:07:30 51°10.734 2°40.283 -999 -999 -999 -999
2008-10-10 07:07:40 51°10.721 2°40.237 -999 -999 -999 -999
2008-10-10 07:07:50 51°10.708 2°40.191 -999 -999 -999 -999
2008-10-10 07:08:00 51°10.694 2°40.146 -999 -999 -999 -999
2008-10-10 07:08:10 51°10.68 2°40.102 -999 -999 -999 -999
2008-10-10 07:08:20 51°10.666 2°40.057 -999 -999 -999 -999
2008-10-10 07:08:30 51°10.651 2°40.013 -999 -999 -999 -999
2008-10-10 07:08:40 51°10.636 2°39.969 -999 -999 -999 -999
2008-10-10 07:08:50 51°10.622 2°39.925 -999 -999 -999 -999
2008-10-10 07:09:00 51°10.608 2°39.88 -999 -999 -999 -999
2008-10-10 07:09:10 51°10.594 2°39.836 -999 -999 -999 -999
2008-10-10 07:09:20 51°10.579 2°39.791 -999 -999 -999 -999
2008-10-10 07:09:30 51°10.566 2°39.746 -999 -999 -999 -999
2008-10-10 07:09:40 51°10.552 2°39.701 -999 -999 -999 -999
2008-10-10 07:09:50 51°10.539 2°39.656 -999 -999 -999 -999
2008-10-10 07:10:00 51°10.526 2°39.61 -999 -999 -999 -999
2008-10-10 07:10:10 51°10.514 2°39.564 -999 -999 -999 -999
2008-10-10 07:10:20 51°10.501 2°39.518 -999 -999 -999 -999
2008-10-10 07:10:30 51°10.489 2°39.472 -999 -999 -999 -999
2008-10-10 07:10:40 51°10.476 2°39.426 -999 -999 -999 -999
2008-10-10 07:10:50 51°10.462 2°39.381 -999 -999 -999 -999
2008-10-10 07:11:00 51°10.448 2°39.336 -999 -999 -999 -999
2008-10-10 07:11:10 51°10.434 2°39.292 -999 -999 -999 -999
2008-10-10 07:11:20 51°10.418 2°39.248 -999 -999 -999 -999
2008-10-10 07:11:30 51°10.403 2°39.205 -999 -999 -999 -999
2008-10-10 07:11:40 51°10.387 2°39.161 -999 -999 -999 -999
2008-10-10 07:11:50 51°10.373 2°39.116 -999 -999 -999 -999
2008-10-10 07:12:00 51°10.359 2°39.071 -999 -999 -999 -999
2008-10-10 07:12:10 51°10.344 2°39.027 -999 -999 -999 -999
2008-10-10 07:12:20 51°10.33 2°38.982 -999 -999 -999 -999
2008-10-10 07:12:30 51°10.316 2°38.937 -999 -999 -999 -999
2008-10-10 07:12:40 51°10.302 2°38.892 -999 -999 -999 -999
2008-10-10 07:12:50 51°10.288 2°38.847 -999 -999 -999 -999
2008-10-10 07:13:00 51°10.274 2°38.802 -999 -999 -999 -999
2008-10-10 07:13:10 51°10.26 2°38.757 -999 -999 -999 -999
2008-10-10 07:13:20 51°10.246 2°38.712 -999 -999 -999 -999
2008-10-10 07:13:30 51°10.232 2°38.668 -999 -999 -999 -999
2008-10-10 07:13:40 51°10.217 2°38.624 -999 -999 -999 -999
2008-10-10 07:13:50 51°10.201 2°38.581 -999 -999 -999 -999
2008-10-10 07:14:00 51°10.186 2°38.537 -999 -999 -999 -999
2008-10-10 07:14:10 51°10.17 2°38.494 -999 -999 -999 -999
2008-10-10 07:14:20 51°10.154 2°38.451 -999 -999 -999 -999
2008-10-10 07:14:30 51°10.139 2°38.409 -999 -999 -999 -999
2008-10-10 07:14:40 51°10.123 2°38.365 -999 -999 -999 -999
2008-10-10 07:14:50 51°10.108 2°38.322 -999 -999 -999 -999
2008-10-10 07:15:00 51°10.093 2°38.278 -999 -999 -999 -999
2008-10-10 07:15:10 51°10.079 2°38.233 -999 -999 -999 -999
2008-10-10 07:15:20 51°10.065 2°38.188 -999 -999 -999 -999
2008-10-10 07:15:30 51°10.052 2°38.143 -999 -999 -999 -999
2008-10-10 07:15:40 51°10.038 2°38.098 -999 -999 -999 -999
2008-10-10 07:15:50 51°10.024 2°38.053 -999 -999 -999 -999
2008-10-10 07:16:00 51°10.009 2°38.009 -999 -999 -999 -999
2008-10-10 07:16:10 51°9.994 2°37.965 -999 -999 -999 -999
2008-10-10 07:16:20 51°9.979 2°37.92 -999 -999 -999 -999
2008-10-10 07:16:30 51°9.965 2°37.875 -999 -999 -999 -999
2008-10-10 07:16:40 51°9.951 2°37.831 -999 -999 -999 -999
2008-10-10 07:16:50 51°9.936 2°37.787 -999 -999 -999 -999
2008-10-10 07:17:00 51°9.921 2°37.744 -999 -999 -999 -999
2008-10-10 07:17:10 51°9.905 2°37.7 -999 -999 -999 -999
2008-10-10 07:17:20 51°9.891 2°37.661 -999 -999 -999 -999
2008-10-10 07:17:30 51°9.882 2°37.627 -999 -999 -999 -999
2008-10-10 07:17:40 51°9.879 2°37.597 -999 -999 -999 -999
2008-10-10 07:17:50 51°9.883 2°37.571 -999 -999 -999 -999
2008-10-10 07:18:00 51°9.891 2°37.549 -999 -999 -999 -999
2008-10-10 07:18:10 51°9.904 2°37.534 -999 -999 -999 -999
2008-10-10 07:18:20 51°9.919 2°37.526 -999 -999 -999 -999
2008-10-10 07:18:30 51°9.937 2°37.523 -999 -999 -999 -999
2008-10-10 07:18:40 51°9.959 2°37.521 -999 -999 -999 -999
2008-10-10 07:18:50 51°9.982 2°37.509 -999 -999 -999 -999
2008-10-10 07:19:00 51°10.007 2°37.493 -999 -999 -999 -999
2008-10-10 07:19:10 51°10.035 2°37.474 -999 -999 -999 -999
2008-10-10 07:19:20 51°10.061 2°37.45 -999 -999 -999 -999
2008-10-10 07:19:30 51°10.085 2°37.417 -999 -999 -999 -999
2008-10-10 07:19:40 51°10.111 2°37.381 -999 -999 -999 -999
2008-10-10 07:19:50 51°10.136 2°37.346 -999 -999 -999 -999
2008-10-10 07:20:00 51°10.158 2°37.315 -999 -999 -999 -999
2008-10-10 07:20:10 51°10.183 2°37.28 -999 -999 -999 -999
2008-10-10 07:20:20 51°10.211 2°37.241 -999 -999 -999 -999
2008-10-10 07:20:30 51°10.236 2°37.206 -999 -999 -999 -999
2008-10-10 07:20:40 51°10.261 2°37.171 -999 -999 -999 -999
2008-10-10 07:20:50 51°10.284 2°37.139 -999 -999 -999 -999
2008-10-10 07:21:00 51°10.312 2°37.1 -999 -999 -999 -999
2008-10-10 07:21:10 51°10.337 2°37.065 -999 -999 -999 -999
2008-10-10 07:21:20 51°10.36 2°37.033 -999 -999 -999 -999
2008-10-10 07:21:30 51°10.387 2°36.994 -999 -999 -999 -999
2008-10-10 07:21:40 51°10.41 2°36.957 -999 -999 -999 -999
2008-10-10 07:21:50 51°10.434 2°36.92 -999 -999 -999 -999
2008-10-10 07:22:00 51°10.454 2°36.887 -999 -999 -999 -999
2008-10-10 07:22:10 51°10.478 2°36.85 -999 -999 -999 -999
2008-10-10 07:22:20 51°10.503 2°36.81 -999 -999 -999 -999
2008-10-10 07:22:30 51°10.527 2°36.775 -999 -999 -999 -999
2008-10-10 07:22:40 51°10.554 2°36.745 -999 -999 -999 -999
2008-10-10 07:22:50 51°10.58 2°36.722 -999 -999 -999 -999
2008-10-10 07:23:00 51°10.611 2°36.702 -999 -999 -999 -999
2008-10-10 07:23:10 51°10.646 2°36.684 -999 -999 -999 -999
2008-10-10 07:23:20 51°10.679 2°36.673 -999 -999 -999 -999
2008-10-10 07:23:30 51°10.71 2°36.668 -999 -999 -999 -999
2008-10-10 07:23:40 51°10.744 2°36.669 -999 -999 -999 -999
2008-10-10 07:23:50 51°10.782 2°36.676 -999 -999 -999 -999
2008-10-10 07:24:00 51°10.817 2°36.687 -999 -999 -999 -999
2008-10-10 07:24:10 51°10.848 2°36.698 -999 -999 -999 -999
2008-10-10 07:24:20 51°10.882 2°36.712 -999 -999 -999 -999
2008-10-10 07:24:30 51°10.92 2°36.73 -999 -999 -999 -999
2008-10-10 07:24:40 51°10.953 2°36.747 -999 -999 -999 -999
2008-10-10 07:24:50 51°10.984 2°36.764 -999 -999 -999 -999
2008-10-10 07:25:00 51°11.018 2°36.782 -999 -999 -999 -999
2008-10-10 07:25:10 51°11.051 2°36.802 -999 -999 -999 -999
2008-10-10 07:25:20 51°11.085 2°36.822 -999 -999 -999 -999
2008-10-10 07:25:30 51°11.119 2°36.843 -999 -999 -999 -999
2008-10-10 07:25:40 51°11.152 2°36.863 -999 -999 -999 -999
2008-10-10 07:25:50 51°11.186 2°36.883 -999 -999 -999 -999
2008-10-10 07:26:00 51°11.22 2°36.902 -999 -999 -999 -999
2008-10-10 07:26:10 51°11.254 2°36.921 -999 -999 -999 -999
2008-10-10 07:26:20 51°11.287 2°36.942 -999 -999 -999 -999
2008-10-10 07:26:30 51°11.32 2°36.964 -999 -999 -999 -999
2008-10-10 07:26:40 51°11.353 2°36.987 -999 -999 -999 -999
2008-10-10 07:26:50 51°11.386 2°37.009 -999 -999 -999 -999
2008-10-10 07:27:00 51°11.419 2°37.033 -999 -999 -999 -999
2008-10-10 07:27:10 51°11.451 2°37.059 -999 -999 -999 -999
2008-10-10 07:27:20 51°11.482 2°37.088 -999 -999 -999 -999
2008-10-10 07:27:30 51°11.513 2°37.119 -999 -999 -999 -999
2008-10-10 07:27:40 51°11.544 2°37.149 -999 -999 -999 -999
2008-10-10 07:27:50 51°11.574 2°37.178 -999 -999 -999 -999
2008-10-10 07:28:00 51°11.605 2°37.207 -999 -999 -999 -999
2008-10-10 07:28:10 51°11.637 2°37.236 -999 -999 -999 -999
2008-10-10 07:28:20 51°11.668 2°37.265 -999 -999 -999 -999
2008-10-10 07:28:30 51°11.699 2°37.295 -999 -999 -999 -999
2008-10-10 07:28:40 51°11.729 2°37.325 -999 -999 -999 -999
2008-10-10 07:28:50 51°11.76 2°37.356 -999 -999 -999 -999
2008-10-10 07:29:00 51°11.79 2°37.387 -999 -999 -999 -999
2008-10-10 07:29:10 51°11.821 2°37.418 -999 -999 -999 -999
2008-10-10 07:29:20 51°11.851 2°37.448 -999 -999 -999 -999
2008-10-10 07:29:30 51°11.883 2°37.477 -999 -999 -999 -999
2008-10-10 07:29:40 51°11.914 2°37.506 -999 -999 -999 -999
2008-10-10 07:29:50 51°11.945 2°37.533 -999 -999 -999 -999
2008-10-10 07:30:00 51°11.977 2°37.561 -999 -999 -999 -999
2008-10-10 07:30:10 51°12.008 2°37.59 -999 -999 -999 -999
2008-10-10 07:30:20 51°12.04 2°37.618 -999 -999 -999 -999
2008-10-10 07:30:30 51°12.071 2°37.646 -999 -999 -999 -999
2008-10-10 07:30:40 51°12.103 2°37.674 -999 -999 -999 -999
2008-10-10 07:30:50 51°12.134 2°37.703 -999 -999 -999 -999
2008-10-10 07:31:00 51°12.166 2°37.73 -999 -999 -999 -999
2008-10-10 07:31:10 51°12.197 2°37.759 -999 -999 -999 -999
2008-10-10 07:31:20 51°12.229 2°37.787 -999 -999 -999 -999
2008-10-10 07:31:30 51°12.26 2°37.814 -999 -999 -999 -999
2008-10-10 07:31:40 51°12.292 2°37.842 -999 -999 -999 -999
2008-10-10 07:31:50 51°12.323 2°37.87 -999 -999 -999 -999
2008-10-10 07:32:00 51°12.355 2°37.897 -999 -999 -999 -999
2008-10-10 07:32:10 51°12.387 2°37.923 -999 -999 -999 -999
2008-10-10 07:32:20 51°12.419 2°37.95 -999 -999 -999 -999
2008-10-10 07:32:30 51°12.45 2°37.977 -999 -999 -999 -999
2008-10-10 07:32:40 51°12.482 2°38.004 -999 -999 -999 -999
2008-10-10 07:32:50 51°12.514 2°38.03 -999 -999 -999 -999
2008-10-10 07:33:00 51°12.546 2°38.056 -999 -999 -999 -999
2008-10-10 07:33:10 51°12.578 2°38.081 -999 -999 -999 -999
2008-10-10 07:33:20 51°12.61 2°38.108 -999 -999 -999 -999
2008-10-10 07:33:30 51°12.642 2°38.133 -999 -999 -999 -999
2008-10-10 07:33:40 51°12.674 2°38.159 -999 -999 -999 -999
2008-10-10 07:33:50 51°12.705 2°38.186 -999 -999 -999 -999
2008-10-10 07:34:00 51°12.736 2°38.214 -999 -999 -999 -999
2008-10-10 07:34:10 51°12.767 2°38.244 -999 -999 -999 -999
2008-10-10 07:34:20 51°12.798 2°38.273 -999 -999 -999 -999
2008-10-10 07:34:30 51°12.828 2°38.303 -999 -999 -999 -999
2008-10-10 07:34:40 51°12.859 2°38.332 -999 -999 -999 -999
2008-10-10 07:34:50 51°12.89 2°38.36 -999 -999 -999 -999
2008-10-10 07:35:00 51°12.921 2°38.389 -999 -999 -999 -999
2008-10-10 07:35:10 51°12.952 2°38.418 -999 -999 -999 -999
2008-10-10 07:35:20 51°12.983 2°38.448 -999 -999 -999 -999
2008-10-10 07:35:30 51°13.014 2°38.478 -999 -999 -999 -999
2008-10-10 07:35:40 51°13.045 2°38.506 -999 -999 -999 -999
2008-10-10 07:35:50 51°13.076 2°38.536 -999 -999 -999 -999
2008-10-10 07:36:00 51°13.107 2°38.565 -999 -999 -999 -999
2008-10-10 07:36:10 51°13.139 2°38.593 -999 -999 -999 -999
2008-10-10 07:36:20 51°13.17 2°38.621 -999 -999 -999 -999
2008-10-10 07:36:30 51°13.201 2°38.648 -999 -999 -999 -999
2008-10-10 07:36:40 51°13.233 2°38.675 -999 -999 -999 -999
2008-10-10 07:36:50 51°13.265 2°38.702 -999 -999 -999 -999
2008-10-10 07:37:00 51°13.296 2°38.731 -999 -999 -999 -999
2008-10-10 07:37:10 51°13.327 2°38.76 -999 -999 -999 -999
2008-10-10 07:37:20 51°13.358 2°38.789 -999 -999 -999 -999
2008-10-10 07:37:30 51°13.389 2°38.819 -999 -999 -999 -999
2008-10-10 07:37:40 51°13.42 2°38.849 -999 -999 -999 -999
2008-10-10 07:37:50 51°13.451 2°38.879 -999 -999 -999 -999
2008-10-10 07:38:00 51°13.482 2°38.909 -999 -999 -999 -999
2008-10-10 07:38:10 51°13.512 2°38.938 -999 -999 -999 -999
2008-10-10 07:38:20 51°13.544 2°38.966 -999 -999 -999 -999
2008-10-10 07:38:30 51°13.575 2°38.994 -999 -999 -999 -999
2008-10-10 07:38:40 51°13.607 2°39.021 -999 -999 -999 -999
2008-10-10 07:38:50 51°13.638 2°39.048 -999 -999 -999 -999
2008-10-10 07:39:00 51°13.67 2°39.076 -999 -999 -999 -999
2008-10-10 07:39:10 51°13.701 2°39.103 -999 -999 -999 -999
2008-10-10 07:39:20 51°13.733 2°39.13 -999 -999 -999 -999
2008-10-10 07:39:30 51°13.764 2°39.156 -999 -999 -999 -999
2008-10-10 07:39:40 51°13.796 2°39.182 -999 -999 -999 -999
2008-10-10 07:39:50 51°13.828 2°39.208 -999 -999 -999 -999
2008-10-10 07:40:00 51°13.859 2°39.234 -999 -999 -999 -999
2008-10-10 07:40:10 51°13.891 2°39.259 -999 -999 -999 -999
2008-10-10 07:40:20 51°13.923 2°39.284 -999 -999 -999 -999
2008-10-10 07:40:30 51°13.956 2°39.309 -999 -999 -999 -999
2008-10-10 07:40:40 51°13.987 2°39.334 -999 -999 -999 -999
2008-10-10 07:40:50 51°14.019 2°39.359 -999 -999 -999 -999
2008-10-10 07:41:00 51°14.051 2°39.385 -999 -999 -999 -999
2008-10-10 07:41:10 51°14.082 2°39.412 -999 -999 -999 -999
2008-10-10 07:41:20 51°14.113 2°39.439 -999 -999 -999 -999
2008-10-10 07:41:30 51°14.145 2°39.466 -999 -999 -999 -999
2008-10-10 07:41:40 51°14.176 2°39.493 -999 -999 -999 -999
2008-10-10 07:41:50 51°14.207 2°39.519 -999 -999 -999 -999
2008-10-10 07:42:00 51°14.239 2°39.545 -999 -999 -999 -999
2008-10-10 07:42:10 51°14.271 2°39.57 -999 -999 -999 -999
2008-10-10 07:42:20 51°14.302 2°39.596 -999 -999 -999 -999
2008-10-10 07:42:30 51°14.334 2°39.623 -999 -999 -999 -999
2008-10-10 07:42:40 51°14.365 2°39.648 -999 -999 -999 -999
2008-10-10 07:42:50 51°14.396 2°39.674 -999 -999 -999 -999
2008-10-10 07:43:00 51°14.428 2°39.701 -999 -999 -999 -999
2008-10-10 07:43:10 51°14.46 2°39.725 -999 -999 -999 -999
2008-10-10 07:43:20 51°14.492 2°39.75 -999 -999 -999 -999
2008-10-10 07:43:30 51°14.524 2°39.774 -999 -999 -999 -999
2008-10-10 07:43:40 51°14.556 2°39.8 -999 -999 -999 -999
2008-10-10 07:43:50 51°14.587 2°39.824 -999 -999 -999 -999
2008-10-10 07:44:00 51°14.619 2°39.849 -999 -999 -999 -999
2008-10-10 07:44:10 51°14.651 2°39.873 -999 -999 -999 -999
2008-10-10 07:44:20 51°14.684 2°39.895 -999 -999 -999 -999
2008-10-10 07:44:30 51°14.716 2°39.918 -999 -999 -999 -999
2008-10-10 07:44:40 51°14.748 2°39.94 -999 -999 -999 -999
2008-10-10 07:44:50 51°14.778 2°39.959 -999 -999 -999 -999
2008-10-10 07:45:00 51°14.813 2°39.984 -999 -999 -999 -999
2008-10-10 07:45:10 51°14.846 2°40.006 -999 -999 -999 -999
2008-10-10 07:45:20 51°14.878 2°40.029 -999 -999 -999 -999
2008-10-10 07:45:30 51°14.911 2°40.052 -999 -999 -999 -999
2008-10-10 07:45:40 51°14.943 2°40.075 -999 -999 -999 -999
2008-10-10 07:45:50 51°14.976 2°40.098 -999 -999 -999 -999
2008-10-10 07:46:00 51°15.008 2°40.119 -999 -999 -999 -999
2008-10-10 07:46:10 51°15.041 2°40.141 -999 -999 -999 -999
2008-10-10 07:46:20 51°15.074 2°40.163 -999 -999 -999 -999
2008-10-10 07:46:30 51°15.106 2°40.184 -999 -999 -999 -999
2008-10-10 07:46:40 51°15.139 2°40.205 -999 -999 -999 -999
2008-10-10 07:46:50 51°15.171 2°40.227 -999 -999 -999 -999
2008-10-10 07:47:00 51°15.204 2°40.248 -999 -999 -999 -999
2008-10-10 07:47:10 51°15.237 2°40.27 -999 -999 -999 -999
2008-10-10 07:47:20 51°15.269 2°40.292 -999 -999 -999 -999
2008-10-10 07:47:30 51°15.302 2°40.313 -999 -999 -999 -999
2008-10-10 07:47:40 51°15.335 2°40.333 -999 -999 -999 -999
2008-10-10 07:47:50 51°15.368 2°40.353 -999 -999 -999 -999
2008-10-10 07:48:00 51°15.401 2°40.373 -999 -999 -999 -999
2008-10-10 07:48:10 51°15.434 2°40.395 -999 -999 -999 -999
2008-10-10 07:48:20 51°15.467 2°40.416 -999 -999 -999 -999
2008-10-10 07:48:30 51°15.499 2°40.439 -999 -999 -999 -999
2008-10-10 07:48:40 51°15.532 2°40.46 -999 -999 -999 -999
2008-10-10 07:48:50 51°15.565 2°40.483 -999 -999 -999 -999
2008-10-10 07:49:00 51°15.598 2°40.505 -999 -999 -999 -999
2008-10-10 07:49:10 51°15.63 2°40.526 -999 -999 -999 -999
2008-10-10 07:49:20 51°15.663 2°40.548 -999 -999 -999 -999
2008-10-10 07:49:30 51°15.696 2°40.569 -999 -999 -999 -999
2008-10-10 07:49:40 51°15.729 2°40.592 -999 -999 -999 -999
2008-10-10 07:49:50 51°15.761 2°40.615 -999 -999 -999 -999
2008-10-10 07:50:00 51°15.794 2°40.638 -999 -999 -999 -999
2008-10-10 07:50:10 51°15.826 2°40.661 -999 -999 -999 -999
2008-10-10 07:50:20 51°15.859 2°40.683 -999 -999 -999 -999
2008-10-10 07:50:30 51°15.892 2°40.704 -999 -999 -999 -999
2008-10-10 07:50:40 51°15.925 2°40.724 -999 -999 -999 -999
2008-10-10 07:50:50 51°15.958 2°40.746 -999 -999 -999 -999
2008-10-10 07:51:00 51°15.99 2°40.768 -999 -999 -999 -999
2008-10-10 07:51:10 51°16.023 2°40.79 -999 -999 -999 -999
2008-10-10 07:51:20 51°16.056 2°40.811 -999 -999 -999 -999
2008-10-10 07:51:30 51°16.089 2°40.833 -999 -999 -999 -999
2008-10-10 07:51:40 51°16.121 2°40.854 -999 -999 -999 -999
2008-10-10 07:51:50 51°16.154 2°40.875 -999 -999 -999 -999
2008-10-10 07:52:00 51°16.188 2°40.896 -999 -999 -999 -999
2008-10-10 07:52:10 51°16.22 2°40.917 -999 -999 -999 -999
2008-10-10 07:52:20 51°16.253 2°40.939 -999 -999 -999 -999
2008-10-10 07:52:30 51°16.286 2°40.961 -999 -999 -999 -999
2008-10-10 07:52:40 51°16.318 2°40.984 -999 -999 -999 -999
2008-10-10 07:52:50 51°16.351 2°41.006 -999 -999 -999 -999
2008-10-10 07:53:00 51°16.384 2°41.028 -999 -999 -999 -999
2008-10-10 07:53:10 51°16.417 2°41.051 -999 -999 -999 -999
2008-10-10 07:53:20 51°16.449 2°41.073 -999 -999 -999 -999
2008-10-10 07:53:30 51°16.482 2°41.095 -999 -999 -999 -999
2008-10-10 07:53:40 51°16.515 2°41.118 -999 -999 -999 -999
2008-10-10 07:53:50 51°16.548 2°41.139 -999 -999 -999 -999
2008-10-10 07:54:00 51°16.581 2°41.161 -999 -999 -999 -999
2008-10-10 07:54:10 51°16.614 2°41.182 -999 -999 -999 -999
2008-10-10 07:54:20 51°16.647 2°41.204 -999 -999 -999 -999
2008-10-10 07:54:30 51°16.679 2°41.226 -999 -999 -999 -999
2008-10-10 07:54:40 51°16.712 2°41.247 -999 -999 -999 -999
2008-10-10 07:54:50 51°16.746 2°41.269 -999 -999 -999 -999
2008-10-10 07:55:00 51°16.778 2°41.29 -999 -999 -999 -999
2008-10-10 07:55:10 51°16.812 2°41.311 -999 -999 -999 -999
2008-10-10 07:55:20 51°16.845 2°41.333 -999 -999 -999 -999
2008-10-10 07:55:30 51°16.878 2°41.356 -999 -999 -999 -999
2008-10-10 07:55:40 51°16.911 2°41.378 -999 -999 -999 -999
2008-10-10 07:55:50 51°16.944 2°41.398 -999 -999 -999 -999
2008-10-10 07:56:00 51°16.977 2°41.42 -999 -999 -999 -999
2008-10-10 07:56:10 51°17.013 2°41.444 -999 -999 -999 -999
2008-10-10 07:56:20 51°17.043 2°41.464 -999 -999 -999 -999
2008-10-10 07:56:30 51°17.076 2°41.487 -999 -999 -999 -999
2008-10-10 07:56:40 51°17.109 2°41.508 -999 -999 -999 -999
2008-10-10 07:56:50 51°17.145 2°41.532 -999 -999 -999 -999
2008-10-10 07:57:00 51°17.175 2°41.552 -999 -999 -999 -999
2008-10-10 07:57:10 51°17.208 2°41.573 -999 -999 -999 -999
2008-10-10 07:57:20 51°17.241 2°41.59 -999 -999 -999 -999
2008-10-10 07:57:30 51°17.275 2°41.6 -999 -999 -999 -999
2008-10-10 07:57:40 51°17.31 2°41.607 -999 -999 -999 -999
2008-10-10 07:57:50 51°17.345 2°41.612 -999 -999 -999 -999
2008-10-10 07:58:00 51°17.38 2°41.615 -999 -999 -999 -999
2008-10-10 07:58:10 51°17.415 2°41.619 -999 -999 -999 -999
2008-10-10 07:58:20 51°17.451 2°41.621 -999 -999 -999 -999
2008-10-10 07:58:30 51°17.486 2°41.624 -999 -999 -999 -999
2008-10-10 07:58:40 51°17.521 2°41.627 -999 -999 -999 -999
2008-10-10 07:58:50 51°17.56 2°41.628 -999 -999 -999 -999
2008-10-10 07:59:00 51°17.591 2°41.628 -999 -999 -999 -999
2008-10-10 07:59:10 51°17.626 2°41.627 -999 -999 -999 -999
2008-10-10 07:59:20 51°17.662 2°41.628 -999 -999 -999 -999
2008-10-10 07:59:30 51°17.7 2°41.63 -999 -999 -999 -999
2008-10-10 07:59:40 51°17.732 2°41.631 -999 -999 -999 -999
2008-10-10 07:59:50 51°17.767 2°41.631 -999 -999 -999 -999
2008-10-10 08:00:00 51°17.802 2°41.632 -999 -999 -999 -999
2008-10-10 08:00:10 51°17.837 2°41.634 -999 -999 -999 -999
2008-10-10 08:00:20 51°17.873 2°41.637 -999 -999 -999 -999
2008-10-10 08:00:30 51°17.908 2°41.639 -999 -999 -999 -999
2008-10-10 08:00:40 51°17.943 2°41.641 -999 -999 -999 -999
2008-10-10 08:00:50 51°17.978 2°41.642 -999 -999 -999 -999
2008-10-10 08:01:00 51°18.013 2°41.642 -999 -999 -999 -999
2008-10-10 08:01:10 51°18.048 2°41.643 -999 -999 -999 -999
2008-10-10 08:01:20 51°18.084 2°41.645 -999 -999 -999 -999
2008-10-10 08:01:30 51°18.119 2°41.646 -999 -999 -999 -999
2008-10-10 08:01:40 51°18.154 2°41.648 -999 -999 -999 -999
2008-10-10 08:01:50 51°18.193 2°41.649 -999 -999 -999 -999
2008-10-10 08:02:00 51°18.225 2°41.652 -999 -999 -999 -999
2008-10-10 08:02:10 51°18.261 2°41.655 -999 -999 -999 -999
2008-10-10 08:02:20 51°18.296 2°41.659 -999 -999 -999 -999
2008-10-10 08:02:30 51°18.335 2°41.661 -999 -999 -999 -999
2008-10-10 08:02:40 51°18.367 2°41.664 -999 -999 -999 -999
2008-10-10 08:02:50 51°18.402 2°41.668 -999 -999 -999 -999
2008-10-10 08:03:00 51°18.438 2°41.672 -999 -999 -999 -999
2008-10-10 08:03:10 51°18.477 2°41.675 -999 -999 -999 -999
2008-10-10 08:03:20 51°18.508 2°41.676 -999 -999 -999 -999
2008-10-10 08:03:30 51°18.544 2°41.68 -999 -999 -999 -999
2008-10-10 08:03:40 51°18.583 2°41.684 -999 -999 -999 -999
2008-10-10 08:03:50 51°18.615 2°41.687 -999 -999 -999 -999
2008-10-10 08:04:00 51°18.65 2°41.69 -999 -999 -999 -999
2008-10-10 08:04:10 51°18.685 2°41.692 -999 -999 -999 -999
2008-10-10 08:04:20 51°18.724 2°41.696 -999 -999 -999 -999
2008-10-10 08:04:30 51°18.759 2°41.698 -999 -999 -999 -999
2008-10-10 08:04:40 51°18.79 2°41.7 -999 -999 -999 -999
2008-10-10 08:04:50 51°18.825 2°41.701 -999 -999 -999 -999
2008-10-10 08:05:00 51°18.864 2°41.704 -999 -999 -999 -999
2008-10-10 08:05:10 51°18.896 2°41.705 -999 -999 -999 -999
2008-10-10 08:05:20 51°18.931 2°41.708 -999 -999 -999 -999
2008-10-10 08:05:30 51°18.966 2°41.711 -999 -999 -999 -999
2008-10-10 08:05:40 51°19.005 2°41.714 -999 -999 -999 -999
2008-10-10 08:05:50 51°19.037 2°41.718 -999 -999 -999 -999
2008-10-10 08:06:00 51°19.073 2°41.722 -999 -999 -999 -999
2008-10-10 08:06:10 51°19.108 2°41.726 -999 -999 -999 -999
2008-10-10 08:06:20 51°19.147 2°41.73 -999 -999 -999 -999
2008-10-10 08:06:30 51°19.183 2°41.734 -999 -999 -999 -999
2008-10-10 08:06:40 51°19.214 2°41.737 -999 -999 -999 -999
2008-10-10 08:06:50 51°19.25 2°41.74 -999 -999 -999 -999
2008-10-10 08:07:00 51°19.286 2°41.731 -999 -999 -999 -999
2008-10-10 08:07:10 51°19.314 2°41.715 -999 -999 -999 -999
2008-10-10 08:07:20 51°19.345 2°41.695 -999 -999 -999 -999
2008-10-10 08:07:30 51°19.377 2°41.677 -999 -999 -999 -999
2008-10-10 08:07:40 51°19.413 2°41.657 -999 -999 -999 -999
2008-10-10 08:07:50 51°19.442 2°41.641 -999 -999 -999 -999
2008-10-10 08:08:00 51°19.475 2°41.624 -999 -999 -999 -999
2008-10-10 08:08:10 51°19.507 2°41.606 -999 -999 -999 -999
2008-10-10 08:08:20 51°19.543 2°41.585 -999 -999 -999 -999
2008-10-10 08:08:30 51°19.572 2°41.569 -999 -999 -999 -999
2008-10-10 08:08:40 51°19.607 2°41.548 -999 -999 -999 -999
2008-10-10 08:08:50 51°19.64 2°41.531 -999 -999 -999 -999
2008-10-10 08:09:00 51°19.673 2°41.516 -999 -999 -999 -999
2008-10-10 08:09:10 51°19.703 2°41.502 -999 -999 -999 -999
2008-10-10 08:09:20 51°19.736 2°41.487 -999 -999 -999 -999
2008-10-10 08:09:30 51°19.773 2°41.472 -999 -999 -999 -999
2008-10-10 08:09:40 51°19.807 2°41.46 -999 -999 -999 -999
2008-10-10 08:09:50 51°19.837 2°41.45 -999 -999 -999 -999
2008-10-10 08:10:00 51°19.871 2°41.438 -999 -999 -999 -999
2008-10-10 08:10:10 51°19.905 2°41.427 -999 -999 -999 -999
2008-10-10 08:10:20 51°19.941 2°41.413 -999 -999 -999 -999
2008-10-10 08:10:30 51°19.975 2°41.402 -999 -999 -999 -999
2008-10-10 08:10:40 51°20.006 2°41.397 -999 -999 -999 -999
2008-10-10 08:10:50 51°20.044 2°41.395 -999 -999 -999 -999
2008-10-10 08:11:00 51°20.079 2°41.394 -999 -999 -999 -999
2008-10-10 08:11:10 51°20.11 2°41.395 -999 -999 -999 -999
2008-10-10 08:11:20 51°20.149 2°41.395 -999 -999 -999 -999
2008-10-10 08:11:30 51°20.184 2°41.395 -999 -999 -999 -999
2008-10-10 08:11:40 51°20.219 2°41.398 -999 -999 -999 -999
2008-10-10 08:11:50 51°20.251 2°41.401 -999 -999 -999 -999
2008-10-10 08:12:00 51°20.29 2°41.402 -999 -999 -999 -999
2008-10-10 08:12:10 51°20.325 2°41.403 -999 -999 -999 -999
2008-10-10 08:12:20 51°20.36 2°41.404 -999 -999 -999 -999
2008-10-10 08:12:30 51°20.391 2°41.404 -999 -999 -999 -999
2008-10-10 08:12:40 51°20.43 2°41.405 -999 -999 -999 -999
2008-10-10 08:12:50 51°20.466 2°41.406 -999 -999 -999 -999
2008-10-10 08:13:00 51°20.497 2°41.407 -999 -999 -999 -999
2008-10-10 08:13:10 51°20.532 2°41.409 -999 -999 -999 -999
2008-10-10 08:13:20 51°20.571 2°41.411 -999 -999 -999 -999
2008-10-10 08:13:30 51°20.607 2°41.413 -999 -999 -999 -999
2008-10-10 08:13:40 51°20.638 2°41.414 -999 -999 -999 -999
2008-10-10 08:13:50 51°20.677 2°41.415 -999 -999 -999 -999
2008-10-10 08:14:00 51°20.712 2°41.416 -999 -999 -999 -999
2008-10-10 08:14:10 51°20.748 2°41.416 -999 -999 -999 -999
2008-10-10 08:14:20 51°20.783 2°41.418 -999 -999 -999 -999
2008-10-10 08:14:30 51°20.815 2°41.42 -999 -999 -999 -999
2008-10-10 08:14:40 51°20.854 2°41.422 -999 -999 -999 -999
2008-10-10 08:14:50 51°20.89 2°41.425 -999 -999 -999 -999
2008-10-10 08:15:00 51°20.925 2°41.427 -999 -999 -999 -999
2008-10-10 08:15:10 51°20.961 2°41.43 -999 -999 -999 -999
2008-10-10 08:15:20 51°20.996 2°41.432 -999 -999 -999 -999
2008-10-10 08:15:30 51°21.028 2°41.433 -999 -999 -999 -999
2008-10-10 08:15:40 51°21.067 2°41.435 -999 -999 -999 -999
2008-10-10 08:15:50 51°21.102 2°41.436 -999 -999 -999 -999
2008-10-10 08:16:00 51°21.134 2°41.436 -999 -999 -999 -999
2008-10-10 08:16:10 51°21.17 2°41.436 -999 -999 -999 -999
2008-10-10 08:16:20 51°21.208 2°41.436 -999 -999 -999 -999
2008-10-10 08:16:30 51°21.244 2°41.437 -999 -999 -999 -999
2008-10-10 08:16:40 51°21.279 2°41.439 -999 -999 -999 -999
2008-10-10 08:16:50 51°21.315 2°41.441 -999 -999 -999 -999
2008-10-10 08:17:00 51°21.35 2°41.442 -999 -999 -999 -999
2008-10-10 08:17:10 51°21.385 2°41.443 -999 -999 -999 -999
2008-10-10 08:17:20 51°21.417 2°41.444 -999 -999 -999 -999
2008-10-10 08:17:30 51°21.456 2°41.444 -999 -999 -999 -999
2008-10-10 08:17:40 51°21.492 2°41.445 -999 -999 -999 -999
2008-10-10 08:17:50 51°21.527 2°41.447 -999 -999 -999 -999
2008-10-10 08:18:00 51°21.558 2°41.449 -999 -999 -999 -999
2008-10-10 08:18:10 51°21.597 2°41.461 -999 -999 -999 -999
2008-10-10 08:18:20 51°21.631 2°41.478 -999 -999 -999 -999
2008-10-10 08:18:30 51°21.664 2°41.501 -999 -999 -999 -999
2008-10-10 08:18:40 51°21.691 2°41.528 -999 -999 -999 -999
2008-10-10 08:18:50 51°21.724 2°41.563 -999 -999 -999 -999
2008-10-10 08:19:00 51°21.753 2°41.598 -999 -999 -999 -999
2008-10-10 08:19:10 51°21.782 2°41.634 -999 -999 -999 -999
2008-10-10 08:19:20 51°21.809 2°41.673 -999 -999 -999 -999
2008-10-10 08:19:30 51°21.836 2°41.71 -999 -999 -999 -999
2008-10-10 08:19:40 51°21.865 2°41.747 -999 -999 -999 -999
2008-10-10 08:19:50 51°21.893 2°41.784 -999 -999 -999 -999
2008-10-10 08:20:00 51°21.918 2°41.818 -999 -999 -999 -999
2008-10-10 08:20:10 51°21.948 2°41.861 -999 -999 -999 -999
2008-10-10 08:20:20 51°21.972 2°41.903 -999 -999 -999 -999
2008-10-10 08:20:30 51°21.996 2°41.946 -999 -999 -999 -999
2008-10-10 08:20:40 51°22.02 2°41.99 -999 -999 -999 -999
2008-10-10 08:20:50 51°22.044 2°42.034 -999 -999 -999 -999
2008-10-10 08:21:00 51°22.068 2°42.079 -999 -999 -999 -999
2008-10-10 08:21:10 51°22.091 2°42.124 -999 -999 -999 -999
2008-10-10 08:21:20 51°22.113 2°42.171 -999 -999 -999 -999
2008-10-10 08:21:30 51°22.136 2°42.217 -999 -999 -999 -999
2008-10-10 08:21:40 51°22.159 2°42.263 -999 -999 -999 -999
2008-10-10 08:21:50 51°22.182 2°42.309 -999 -999 -999 -999
2008-10-10 08:22:00 51°22.205 2°42.355 -999 -999 -999 -999
2008-10-10 08:22:10 51°22.228 2°42.399 -999 -999 -999 -999
2008-10-10 08:22:20 51°22.251 2°42.444 -999 -999 -999 -999
2008-10-10 08:22:30 51°22.275 2°42.488 -999 -999 -999 -999
2008-10-10 08:22:40 51°22.299 2°42.532 -999 -999 -999 -999
2008-10-10 08:22:50 51°22.323 2°42.577 -999 -999 -999 -999
2008-10-10 08:23:00 51°22.346 2°42.622 -999 -999 -999 -999
2008-10-10 08:23:10 51°22.369 2°42.666 -999 -999 -999 -999
2008-10-10 08:23:20 51°22.394 2°42.709 -999 -999 -999 -999
2008-10-10 08:23:30 51°22.42 2°42.751 -999 -999 -999 -999
2008-10-10 08:23:40 51°22.448 2°42.789 -999 -999 -999 -999
2008-10-10 08:23:50 51°22.477 2°42.825 -999 -999 -999 -999
2008-10-10 08:24:00 51°22.508 2°42.857 -999 -999 -999 -999
2008-10-10 08:24:10 51°22.539 2°42.885 -999 -999 -999 -999
2008-10-10 08:24:20 51°22.572 2°42.909 -999 -999 -999 -999
2008-10-10 08:24:30 51°22.605 2°42.932 -999 -999 -999 -999
2008-10-10 08:24:40 51°22.638 2°42.949 -999 -999 -999 -999
2008-10-10 08:24:50 51°22.673 2°42.963 -999 -999 -999 -999
2008-10-10 08:25:00 51°22.708 2°42.974 -999 -999 -999 -999
2008-10-10 08:25:10 51°22.743 2°42.981 -999 -999 -999 -999
2008-10-10 08:25:20 51°22.778 2°42.982 -999 -999 -999 -999
2008-10-10 08:25:30 51°22.813 2°42.978 -999 -999 -999 -999
2008-10-10 08:25:40 51°22.848 2°42.973 -999 -999 -999 -999
2008-10-10 08:25:50 51°22.883 2°42.966 -999 -999 -999 -999
2008-10-10 08:26:00 51°22.917 2°42.959 -999 -999 -999 -999
2008-10-10 08:26:10 51°22.953 2°42.951 -999 -999 -999 -999
2008-10-10 08:26:20 51°22.988 2°42.943 -999 -999 -999 -999
2008-10-10 08:26:30 51°23.022 2°42.935 -999 -999 -999 -999
2008-10-10 08:26:40 51°23.057 2°42.928 -999 -999 -999 -999
2008-10-10 08:26:50 51°23.092 2°42.921 -999 -999 -999 -999
2008-10-10 08:27:00 51°23.127 2°42.914 -999 -999 -999 -999
2008-10-10 08:27:10 51°23.162 2°42.907 -999 -999 -999 -999
2008-10-10 08:27:20 51°23.197 2°42.9 -999 -999 -999 -999
2008-10-10 08:27:30 51°23.232 2°42.894 -999 -999 -999 -999
2008-10-10 08:27:40 51°23.267 2°42.888 -999 -999 -999 -999
2008-10-10 08:27:50 51°23.302 2°42.882 -999 -999 -999 -999
2008-10-10 08:28:00 51°23.337 2°42.876 -999 -999 -999 -999
2008-10-10 08:28:10 51°23.372 2°42.871 -999 -999 -999 -999
2008-10-10 08:28:20 51°23.408 2°42.866 -999 -999 -999 -999
2008-10-10 08:28:30 51°23.443 2°42.858 -999 -999 -999 -999
2008-10-10 08:28:40 51°23.478 2°42.849 -999 -999 -999 -999
2008-10-10 08:28:50 51°23.512 2°42.84 -999 -999 -999 -999
2008-10-10 08:29:00 51°23.547 2°42.83 -999 -999 -999 -999
2008-10-10 08:29:10 51°23.581 2°42.82 -999 -999 -999 -999
2008-10-10 08:29:20 51°23.616 2°42.811 -999 -999 -999 -999
2008-10-10 08:29:30 51°23.651 2°42.803 -999 -999 -999 -999
2008-10-10 08:29:40 51°23.686 2°42.795 -999 -999 -999 -999
2008-10-10 08:29:50 51°23.721 2°42.788 -999 -999 -999 -999
2008-10-10 08:30:00 51°23.756 2°42.781 -999 -999 -999 -999
2008-10-10 08:30:10 51°23.791 2°42.773 -999 -999 -999 -999
2008-10-10 08:30:20 51°23.826 2°42.765 -999 -999 -999 -999
2008-10-10 08:30:30 51°23.861 2°42.756 -999 -999 -999 -999
2008-10-10 08:30:40 51°23.895 2°42.747 -999 -999 -999 -999
2008-10-10 08:30:50 51°23.93 2°42.738 -999 -999 -999 -999
2008-10-10 08:31:00 51°23.965 2°42.731 -999 -999 -999 -999
2008-10-10 08:31:10 51°24 2°42.724 -999 -999 -999 -999
2008-10-10 08:31:20 51°24.036 2°42.717 -999 -999 -999 -999
2008-10-10 08:31:30 51°24.071 2°42.71 -999 -999 -999 -999
2008-10-10 08:31:40 51°24.106 2°42.702 -999 -999 -999 -999
2008-10-10 08:31:50 51°24.14 2°42.692 -999 -999 -999 -999
2008-10-10 08:32:00 51°24.175 2°42.682 -999 -999 -999 -999
2008-10-10 08:32:10 51°24.209 2°42.672 -999 -999 -999 -999
2008-10-10 08:32:20 51°24.244 2°42.663 -999 -999 -999 -999
2008-10-10 08:32:30 51°24.279 2°42.654 -999 -999 -999 -999
2008-10-10 08:32:40 51°24.314 2°42.647 -999 -999 -999 -999
2008-10-10 08:32:50 51°24.349 2°42.638 -999 -999 -999 -999
2008-10-10 08:33:00 51°24.384 2°42.629 -999 -999 -999 -999
2008-10-10 08:33:10 51°24.419 2°42.62 -999 -999 -999 -999
2008-10-10 08:33:20 51°24.454 2°42.613 -999 -999 -999 -999
2008-10-10 08:33:30 51°24.489 2°42.604 -999 -999 -999 -999
2008-10-10 08:33:40 51°24.524 2°42.597 -999 -999 -999 -999
2008-10-10 08:33:50 51°24.559 2°42.587 -999 -999 -999 -999
2008-10-10 08:34:00 51°24.594 2°42.577 -999 -999 -999 -999
2008-10-10 08:34:10 51°24.629 2°42.568 -999 -999 -999 -999
2008-10-10 08:34:20 51°24.663 2°42.558 -999 -999 -999 -999
2008-10-10 08:34:30 51°24.698 2°42.55 -999 -999 -999 -999
2008-10-10 08:34:40 51°24.733 2°42.54 -999 -999 -999 -999
2008-10-10 08:34:50 51°24.768 2°42.531 -999 -999 -999 -999
2008-10-10 08:35:00 51°24.803 2°42.523 -999 -999 -999 -999
2008-10-10 08:35:10 51°24.838 2°42.515 -999 -999 -999 -999
2008-10-10 08:35:20 51°24.873 2°42.506 -999 -999 -999 -999
2008-10-10 08:35:30 51°24.909 2°42.496 -999 -999 -999 -999
2008-10-10 08:35:40 51°24.944 2°42.487 -999 -999 -999 -999
2008-10-10 08:35:50 51°24.979 2°42.478 -999 -999 -999 -999
2008-10-10 08:36:00 51°25.014 2°42.468 -999 -999 -999 -999
2008-10-10 08:36:10 51°25.049 2°42.459 -999 -999 -999 -999
2008-10-10 08:36:20 51°25.084 2°42.451 -999 -999 -999 -999
2008-10-10 08:36:30 51°25.119 2°42.441 -999 -999 -999 -999
2008-10-10 08:36:40 51°25.154 2°42.432 -999 -999 -999 -999
2008-10-10 08:36:50 51°25.189 2°42.422 -999 -999 -999 -999
2008-10-10 08:37:00 51°25.224 2°42.412 -999 -999 -999 -999
2008-10-10 08:37:10 51°25.258 2°42.402 -999 -999 -999 -999
2008-10-10 08:37:20 51°25.293 2°42.392 -999 -999 -999 -999
2008-10-10 08:37:30 51°25.328 2°42.381 -999 -999 -999 -999
2008-10-10 08:37:40 51°25.363 2°42.372 -999 -999 -999 -999
2008-10-10 08:37:50 51°25.398 2°42.363 -999 -999 -999 -999
2008-10-10 08:38:00 51°25.432 2°42.354 -999 -999 -999 -999
2008-10-10 08:38:10 51°25.467 2°42.345 -999 -999 -999 -999
2008-10-10 08:38:20 51°25.503 2°42.336 -999 -999 -999 -999
2008-10-10 08:38:30 51°25.538 2°42.327 -999 -999 -999 -999
2008-10-10 08:38:40 51°25.573 2°42.32 -999 -999 -999 -999
2008-10-10 08:38:50 51°25.608 2°42.311 -999 -999 -999 -999
2008-10-10 08:39:00 51°25.643 2°42.303 -999 -999 -999 -999
2008-10-10 08:39:10 51°25.678 2°42.293 -999 -999 -999 -999
2008-10-10 08:39:20 51°25.71 2°42.283 -999 -999 -999 -999
2008-10-10 08:39:30 51°25.738 2°42.275 -999 -999 -999 -999
2008-10-10 08:39:40 51°25.763 2°42.268 -999 -999 -999 -999
2008-10-10 08:39:50 51°25.783 2°42.264 -999 -999 -999 -999
2008-10-10 08:40:00 51°25.807 2°42.259 -999 -999 -999 -999
2008-10-10 08:40:10 51°25.827 2°42.256 -999 -999 -999 -999
2008-10-10 08:40:20 51°25.846 2°42.253 -999 -999 -999 -999
2008-10-10 08:40:30 51°25.865 2°42.25 -999 -999 -999 -999
2008-10-10 08:40:40 51°25.884 2°42.248 -999 -999 -999 -999
2008-10-10 08:40:50 51°25.901 2°42.246 -999 -999 -999 -999
2008-10-10 08:41:00 51°25.919 2°42.243 -999 -999 -999 -999
2008-10-10 08:41:10 51°25.936 2°42.241 -999 -999 -999 -999
2008-10-10 08:41:20 51°25.953 2°42.239 -999 -999 -999 -999
2008-10-10 08:41:30 51°25.97 2°42.237 -999 -999 -999 -999
2008-10-10 08:41:40 51°25.987 2°42.236 -999 -999 -999 -999
2008-10-10 08:41:50 51°26.004 2°42.235 -999 -999 -999 -999
2008-10-10 08:42:00 51°26.021 2°42.236 -999 -999 -999 -999
2008-10-10 08:42:10 51°26.038 2°42.238 -999 -999 -999 -999
2008-10-10 08:42:20 51°26.055 2°42.242 -999 -999 -999 -999
2008-10-10 08:42:30 51°26.074 2°42.254 -999 -999 -999 -999
2008-10-10 08:42:40 51°26.089 2°42.272 -999 -999 -999 -999
2008-10-10 08:42:50 51°26.1 2°42.294 -999 -999 -999 -999
2008-10-10 08:43:00 51°26.107 2°42.319 -999 -999 -999 -999
2008-10-10 08:43:10 51°26.11 2°42.345 -999 -999 -999 -999
2008-10-10 08:43:20 51°26.109 2°42.37 -999 -999 -999 -999
2008-10-10 08:43:30 51°26.105 2°42.392 -999 -999 -999 -999
2008-10-10 08:43:40 51°26.098 2°42.411 -999 -999 -999 -999
2008-10-10 08:43:50 51°26.089 2°42.428 -999 -999 -999 -999
2008-10-10 08:44:00 51°26.078 2°42.44 -999 -999 -999 -999
2008-10-10 08:44:10 51°26.067 2°42.451 -999 -999 -999 -999
2008-10-10 08:44:20 51°26.056 2°42.464 -999 -999 -999 -999
2008-10-10 08:44:30 51°26.047 2°42.481 -999 -999 -999 -999
2008-10-10 08:44:40 51°26.041 2°42.504 -999 -999 -999 -999
2008-10-10 08:44:50 51°26.036 2°42.53 -999 -999 -999 -999
2008-10-10 08:45:00 51°26.035 2°42.56 -999 -999 -999 -999
2008-10-10 08:45:10 51°26.037 2°42.593 -999 -999 -999 -999
2008-10-10 08:45:20 51°26.04 2°42.627 -999 -999 -999 -999
2008-10-10 08:45:30 51°26.044 2°42.675 -999 -999 -999 -999
2008-10-10 08:45:40 51°26.048 2°42.724 -999 -999 -999 -999
2008-10-10 08:45:50 51°26.056 2°42.776 -999 -999 -999 -999
2008-10-10 08:46:00 51°26.065 2°42.828 -999 -999 -999 -999
2008-10-10 08:46:10 51°26.075 2°42.88 -999 -999 -999 -999
2008-10-10 08:46:20 51°26.085 2°42.935 -999 -999 -999 -999
2008-10-10 08:46:30 51°26.1 2°42.987 -999 -999 -999 -999
2008-10-10 08:46:40 51°26.115 2°43.04 -999 -999 -999 -999
2008-10-10 08:46:50 51°26.132 2°43.091 -999 -999 -999 -999
2008-10-10 08:47:00 51°26.15 2°43.142 -999 -999 -999 -999
2008-10-10 08:47:10 51°26.168 2°43.193 -999 -999 -999 -999
2008-10-10 08:47:20 51°26.19 2°43.239 -999 -999 -999 -999
2008-10-10 08:47:30 51°26.214 2°43.283 -999 -999 -999 -999
2008-10-10 08:47:40 51°26.238 2°43.326 -999 -999 -999 -999
2008-10-10 08:47:50 51°26.263 2°43.368 -999 -999 -999 -999
2008-10-10 08:48:00 51°26.288 2°43.41 -999 -999 -999 -999
2008-10-10 08:48:10 51°26.313 2°43.452 -999 -999 -999 -999
2008-10-10 08:48:20 51°26.337 2°43.493 -999 -999 -999 -999
2008-10-10 08:48:30 51°26.362 2°43.535 -999 -999 -999 -999
2008-10-10 08:48:40 51°26.388 2°43.576 -999 -999 -999 -999
2008-10-10 08:48:50 51°26.413 2°43.617 -999 -999 -999 -999